sensor_id;sensor_type;location;lat;lon;timestamp;P1;durP1;ratioP1;P2;durP2;ratioP2
26261;SDS011;13988;52.446;13.280;2023-08-31T00:01:48;2.45;;;1.85;;
26261;SDS011;13988;52.446;13.280;2023-08-31T00:04:14;2.30;;;1.92;;
26261;SDS011;13988;52.446;13.280;2023-08-31T00:06:40;2.20;;;1.85;;
26261;SDS011;13988;52.446;13.280;2023-08-31T00:09:06;2.95;;;2.08;;
26261;SDS011;13988;52.446;13.280;2023-08-31T00:11:34;1.40;;;1.30;;
26261;SDS011;13988;52.446;13.280;2023-08-31T00:14:00;2.33;;;1.88;;
26261;SDS011;13988;52.446;13.280;2023-08-31T00:16:26;2.35;;;2.15;;
26261;SDS011;13988;52.446;13.280;2023-08-31T00:18:52;6.28;;;2.10;;
26261;SDS011;13988;52.446;13.280;2023-08-31T00:21:21;2.20;;;1.50;;
26261;SDS011;13988;52.446;13.280;2023-08-31T00:23:47;2.28;;;2.00;;
26261;SDS011;13988;52.446;13.280;2023-08-31T00:26:13;2.80;;;2.00;;
26261;SDS011;13988;52.446;13.280;2023-08-31T00:28:39;2.05;;;1.88;;
26261;SDS011;13988;52.446;13.280;2023-08-31T00:31:07;3.33;;;2.05;;
26261;SDS011;13988;52.446;13.280;2023-08-31T00:33:33;2.33;;;2.05;;
26261;SDS011;13988;52.446;13.280;2023-08-31T00:36:00;3.58;;;1.98;;
26261;SDS011;13988;52.446;13.280;2023-08-31T00:38:29;1.90;;;1.80;;
26261;SDS011;13988;52.446;13.280;2023-08-31T00:40:55;1.65;;;1.55;;
26261;SDS011;13988;52.446;13.280;2023-08-31T00:43:21;1.75;;;1.65;;
26261;SDS011;13988;52.446;13.280;2023-08-31T00:45:48;3.33;;;2.08;;
26261;SDS011;13988;52.446;13.280;2023-08-31T00:48:17;2.83;;;2.00;;
26261;SDS011;13988;52.446;13.280;2023-08-31T00:50:46;2.58;;;2.00;;
26261;SDS011;13988;52.446;13.280;2023-08-31T00:53:12;1.73;;;1.45;;
26261;SDS011;13988;52.446;13.280;2023-08-31T00:55:38;2.30;;;2.10;;
26261;SDS011;13988;52.446;13.280;2023-08-31T00:58:06;2.05;;;1.85;;
26261;SDS011;13988;52.446;13.280;2023-08-31T01:06:21;2.08;;;1.50;;
26261;SDS011;13988;52.446;13.280;2023-08-31T01:08:52;2.20;;;1.95;;
26261;SDS011;13988;52.446;13.280;2023-08-31T01:11:29;1.75;;;1.60;;
26261;SDS011;13988;52.446;13.280;2023-08-31T01:14:11;1.98;;;1.80;;
26261;SDS011;13988;52.446;13.280;2023-08-31T01:16:45;2.33;;;2.13;;
26261;SDS011;13988;52.446;13.280;2023-08-31T01:19:17;2.42;;;2.22;;
26261;SDS011;13988;52.446;13.280;2023-08-31T01:21:53;2.70;;;1.98;;
26261;SDS011;13988;52.446;13.280;2023-08-31T01:24:22;2.08;;;1.88;;
26261;SDS011;13988;52.446;13.280;2023-08-31T01:26:48;2.50;;;2.08;;
26261;SDS011;13988;52.446;13.280;2023-08-31T01:29:14;1.70;;;1.58;;
26261;SDS011;13988;52.446;13.280;2023-08-31T01:31:43;3.25;;;2.13;;
26261;SDS011;13988;52.446;13.280;2023-08-31T01:34:10;1.45;;;1.35;;
26261;SDS011;13988;52.446;13.280;2023-08-31T01:36:36;2.83;;;1.98;;
26261;SDS011;13988;52.446;13.280;2023-08-31T01:39:14;1.92;;;1.50;;
26261;SDS011;13988;52.446;13.280;2023-08-31T01:41:46;3.92;;;1.45;;
26261;SDS011;13988;52.446;13.280;2023-08-31T01:44:16;1.77;;;1.42;;
26261;SDS011;13988;52.446;13.280;2023-08-31T01:46:46;1.48;;;1.30;;
26261;SDS011;13988;52.446;13.280;2023-08-31T01:49:19;2.22;;;1.35;;
26261;SDS011;13988;52.446;13.280;2023-08-31T01:51:45;2.13;;;1.60;;
26261;SDS011;13988;52.446;13.280;2023-08-31T01:54:10;1.80;;;1.70;;
26261;SDS011;13988;52.446;13.280;2023-08-31T01:56:36;1.83;;;1.50;;
26261;SDS011;13988;52.446;13.280;2023-08-31T01:59:02;1.20;;;1.10;;
26261;SDS011;13988;52.446;13.280;2023-08-31T02:01:27;1.50;;;1.40;;
26261;SDS011;13988;52.446;13.280;2023-08-31T02:03:54;2.00;;;1.73;;
26261;SDS011;13988;52.446;13.280;2023-08-31T02:06:20;3.22;;;1.27;;
26261;SDS011;13988;52.446;13.280;2023-08-31T02:08:45;1.48;;;1.38;;
26261;SDS011;13988;52.446;13.280;2023-08-31T02:11:12;1.58;;;1.40;;
26261;SDS011;13988;52.446;13.280;2023-08-31T02:13:38;2.78;;;1.58;;
26261;SDS011;13988;52.446;13.280;2023-08-31T02:16:05;1.67;;;1.33;;
26261;SDS011;13988;52.446;13.280;2023-08-31T02:18:30;2.08;;;1.25;;
26261;SDS011;13988;52.446;13.280;2023-08-31T02:20:56;1.60;;;1.20;;
26261;SDS011;13988;52.446;13.280;2023-08-31T02:23:22;1.23;;;1.00;;
26261;SDS011;13988;52.446;13.280;2023-08-31T02:25:48;1.38;;;1.15;;
26261;SDS011;13988;52.446;13.280;2023-08-31T02:28:13;1.10;;;1.00;;
26261;SDS011;13988;52.446;13.280;2023-08-31T02:30:39;1.63;;;1.25;;
26261;SDS011;13988;52.446;13.280;2023-08-31T02:33:04;1.48;;;1.08;;
26261;SDS011;13988;52.446;13.280;2023-08-31T02:35:30;1.25;;;1.15;;
26261;SDS011;13988;52.446;13.280;2023-08-31T02:37:56;1.23;;;1.02;;
26261;SDS011;13988;52.446;13.280;2023-08-31T02:40:21;1.23;;;0.88;;
26261;SDS011;13988;52.446;13.280;2023-08-31T02:42:50;0.95;;;0.90;;
26261;SDS011;13988;52.446;13.280;2023-08-31T02:45:17;2.25;;;1.55;;
26261;SDS011;13988;52.446;13.280;2023-08-31T02:47:43;1.13;;;1.02;;
26261;SDS011;13988;52.446;13.280;2023-08-31T02:50:08;2.00;;;1.20;;
26261;SDS011;13988;52.446;13.280;2023-08-31T02:52:34;2.22;;;1.38;;
26261;SDS011;13988;52.446;13.280;2023-08-31T02:55:00;1.17;;;1.08;;
26261;SDS011;13988;52.446;13.280;2023-08-31T02:57:25;2.30;;;1.23;;
26261;SDS011;13988;52.446;13.280;2023-08-31T02:59:51;6.22;;;1.50;;
26261;SDS011;13988;52.446;13.280;2023-08-31T03:02:17;2.55;;;1.52;;
26261;SDS011;13988;52.446;13.280;2023-08-31T03:04:42;1.27;;;1.00;;
26261;SDS011;13988;52.446;13.280;2023-08-31T03:07:08;1.90;;;1.48;;
26261;SDS011;13988;52.446;13.280;2023-08-31T03:09:38;1.20;;;1.00;;
26261;SDS011;13988;52.446;13.280;2023-08-31T03:12:04;1.70;;;1.15;;
26261;SDS011;13988;52.446;13.280;2023-08-31T03:14:30;1.30;;;1.10;;
26261;SDS011;13988;52.446;13.280;2023-08-31T03:16:56;1.30;;;0.90;;
26261;SDS011;13988;52.446;13.280;2023-08-31T03:19:21;2.13;;;1.48;;
26261;SDS011;13988;52.446;13.280;2023-08-31T03:21:47;1.30;;;1.20;;
26261;SDS011;13988;52.446;13.280;2023-08-31T03:24:13;1.65;;;1.20;;
26261;SDS011;13988;52.446;13.280;2023-08-31T03:26:38;3.53;;;1.70;;
26261;SDS011;13988;52.446;13.280;2023-08-31T03:29:04;2.58;;;1.33;;
26261;SDS011;13988;52.446;13.280;2023-08-31T03:31:30;1.95;;;1.50;;
26261;SDS011;13988;52.446;13.280;2023-08-31T03:33:56;3.55;;;1.35;;
26261;SDS011;13988;52.446;13.280;2023-08-31T03:36:22;1.15;;;1.05;;
26261;SDS011;13988;52.446;13.280;2023-08-31T03:38:48;2.40;;;1.40;;
26261;SDS011;13988;52.446;13.280;2023-08-31T03:41:14;2.38;;;1.55;;
26261;SDS011;13988;52.446;13.280;2023-08-31T03:43:40;2.15;;;1.13;;
26261;SDS011;13988;52.446;13.280;2023-08-31T03:46:05;3.50;;;1.40;;
26261;SDS011;13988;52.446;13.280;2023-08-31T03:48:31;1.55;;;1.45;;
26261;SDS011;13988;52.446;13.280;2023-08-31T03:50:57;1.60;;;1.30;;
26261;SDS011;13988;52.446;13.280;2023-08-31T03:53:23;2.17;;;1.55;;
26261;SDS011;13988;52.446;13.280;2023-08-31T03:55:48;1.52;;;1.20;;
26261;SDS011;13988;52.446;13.280;2023-08-31T03:58:14;1.50;;;1.40;;
26261;SDS011;13988;52.446;13.280;2023-08-31T04:00:40;2.13;;;1.60;;
26261;SDS011;13988;52.446;13.280;2023-08-31T04:03:06;1.55;;;1.30;;
26261;SDS011;13988;52.446;13.280;2023-08-31T04:05:33;2.15;;;1.48;;
26261;SDS011;13988;52.446;13.280;2023-08-31T04:08:00;1.23;;;1.13;;
26261;SDS011;13988;52.446;13.280;2023-08-31T04:10:26;1.65;;;1.52;;
26261;SDS011;13988;52.446;13.280;2023-08-31T04:12:52;1.67;;;1.38;;
26261;SDS011;13988;52.446;13.280;2023-08-31T04:15:17;3.55;;;1.67;;
26261;SDS011;13988;52.446;13.280;2023-08-31T04:17:43;2.00;;;1.73;;
26261;SDS011;13988;52.446;13.280;2023-08-31T04:20:09;1.67;;;1.38;;
26261;SDS011;13988;52.446;13.280;2023-08-31T04:22:36;1.67;;;1.52;;
26261;SDS011;13988;52.446;13.280;2023-08-31T04:25:01;1.67;;;1.58;;
26261;SDS011;13988;52.446;13.280;2023-08-31T04:27:27;1.55;;;1.45;;
26261;SDS011;13988;52.446;13.280;2023-08-31T04:29:55;1.92;;;1.73;;
26261;SDS011;13988;52.446;13.280;2023-08-31T04:32:20;2.30;;;1.60;;
26261;SDS011;13988;52.446;13.280;2023-08-31T04:34:46;3.58;;;1.88;;
26261;SDS011;13988;52.446;13.280;2023-08-31T04:37:12;2.45;;;2.25;;
26261;SDS011;13988;52.446;13.280;2023-08-31T04:39:37;2.58;;;1.83;;
26261;SDS011;13988;52.446;13.280;2023-08-31T04:42:03;3.10;;;1.88;;
26261;SDS011;13988;52.446;13.280;2023-08-31T04:44:29;3.15;;;2.08;;
26261;SDS011;13988;52.446;13.280;2023-08-31T04:46:55;2.05;;;1.85;;
26261;SDS011;13988;52.446;13.280;2023-08-31T04:49:20;3.47;;;2.35;;
26261;SDS011;13988;52.446;13.280;2023-08-31T04:51:46;3.33;;;2.70;;
26261;SDS011;13988;52.446;13.280;2023-08-31T04:54:12;5.22;;;2.40;;
26261;SDS011;13988;52.446;13.280;2023-08-31T04:56:37;2.30;;;1.90;;
26261;SDS011;13988;52.446;13.280;2023-08-31T04:59:03;5.15;;;2.35;;
26261;SDS011;13988;52.446;13.280;2023-08-31T05:01:29;2.97;;;2.20;;
26261;SDS011;13988;52.446;13.280;2023-08-31T05:03:55;2.88;;;2.45;;
26261;SDS011;13988;52.446;13.280;2023-08-31T05:06:21;6.35;;;2.85;;
26261;SDS011;13988;52.446;13.280;2023-08-31T05:08:47;2.88;;;2.58;;
26261;SDS011;13988;52.446;13.280;2023-08-31T05:11:13;5.00;;;2.55;;
26261;SDS011;13988;52.446;13.280;2023-08-31T05:13:39;4.88;;;3.05;;
26261;SDS011;13988;52.446;13.280;2023-08-31T05:16:07;2.53;;;2.28;;
26261;SDS011;13988;52.446;13.280;2023-08-31T05:18:33;3.17;;;2.83;;
26261;SDS011;13988;52.446;13.280;2023-08-31T05:20:59;4.05;;;2.78;;
26261;SDS011;13988;52.446;13.280;2023-08-31T05:23:24;3.45;;;3.05;;
26261;SDS011;13988;52.446;13.280;2023-08-31T05:25:50;4.47;;;2.63;;
26261;SDS011;13988;52.446;13.280;2023-08-31T05:28:16;6.00;;;2.63;;
26261;SDS011;13988;52.446;13.280;2023-08-31T05:30:52;3.33;;;2.42;;
26261;SDS011;13988;52.446;13.280;2023-08-31T05:33:20;4.05;;;2.90;;
26261;SDS011;13988;52.446;13.280;2023-08-31T05:35:52;4.50;;;2.20;;
26261;SDS011;13988;52.446;13.280;2023-08-31T05:38:18;3.55;;;3.17;;
26261;SDS011;13988;52.446;13.280;2023-08-31T05:40:43;5.93;;;3.38;;
26261;SDS011;13988;52.446;13.280;2023-08-31T05:43:13;4.75;;;2.97;;
26261;SDS011;13988;52.446;13.280;2023-08-31T05:45:39;4.28;;;2.85;;
26261;SDS011;13988;52.446;13.280;2023-08-31T05:48:05;3.88;;;2.90;;
26261;SDS011;13988;52.446;13.280;2023-08-31T05:50:31;5.55;;;2.83;;
26261;SDS011;13988;52.446;13.280;2023-08-31T05:52:56;2.67;;;2.47;;
26261;SDS011;13988;52.446;13.280;2023-08-31T05:55:22;3.30;;;2.80;;
26261;SDS011;13988;52.446;13.280;2023-08-31T05:57:48;3.45;;;2.88;;
26261;SDS011;13988;52.446;13.280;2023-08-31T06:00:13;4.80;;;2.90;;
26261;SDS011;13988;52.446;13.280;2023-08-31T06:02:39;2.88;;;2.63;;
26261;SDS011;13988;52.446;13.280;2023-08-31T06:05:05;2.60;;;2.40;;
26261;SDS011;13988;52.446;13.280;2023-08-31T06:07:31;4.50;;;3.22;;
26261;SDS011;13988;52.446;13.280;2023-08-31T06:09:57;3.17;;;2.50;;
26261;SDS011;13988;52.446;13.280;2023-08-31T06:12:23;3.50;;;2.95;;
26261;SDS011;13988;52.446;13.280;2023-08-31T06:14:48;4.55;;;3.03;;
26261;SDS011;13988;52.446;13.280;2023-08-31T06:17:14;3.95;;;3.10;;
26261;SDS011;13988;52.446;13.280;2023-08-31T06:19:40;5.55;;;3.08;;
26261;SDS011;13988;52.446;13.280;2023-08-31T06:22:06;3.55;;;2.55;;
26261;SDS011;13988;52.446;13.280;2023-08-31T06:24:32;2.80;;;2.50;;
26261;SDS011;13988;52.446;13.280;2023-08-31T06:26:59;5.10;;;3.20;;
26261;SDS011;13988;52.446;13.280;2023-08-31T06:29:25;3.65;;;2.67;;
26261;SDS011;13988;52.446;13.280;2023-08-31T06:31:50;3.42;;;2.97;;
26261;SDS011;13988;52.446;13.280;2023-08-31T06:34:16;2.85;;;2.40;;
26261;SDS011;13988;52.446;13.280;2023-08-31T06:36:42;3.33;;;2.78;;
26261;SDS011;13988;52.446;13.280;2023-08-31T06:39:07;5.70;;;3.10;;
26261;SDS011;13988;52.446;13.280;2023-08-31T06:41:33;7.32;;;3.35;;
26261;SDS011;13988;52.446;13.280;2023-08-31T06:43:59;4.90;;;3.30;;
26261;SDS011;13988;52.446;13.280;2023-08-31T06:46:24;5.78;;;3.50;;
26261;SDS011;13988;52.446;13.280;2023-08-31T06:48:50;10.73;;;3.90;;
26261;SDS011;13988;52.446;13.280;2023-08-31T06:51:16;4.95;;;3.65;;
26261;SDS011;13988;52.446;13.280;2023-08-31T06:53:41;3.53;;;2.90;;
26261;SDS011;13988;52.446;13.280;2023-08-31T06:56:08;3.47;;;2.83;;
26261;SDS011;13988;52.446;13.280;2023-08-31T06:58:34;5.30;;;3.42;;
26261;SDS011;13988;52.446;13.280;2023-08-31T07:01:00;8.02;;;3.63;;
26261;SDS011;13988;52.446;13.280;2023-08-31T07:03:26;5.25;;;2.90;;
26261;SDS011;13988;52.446;13.280;2023-08-31T07:05:51;5.20;;;2.72;;
26261;SDS011;13988;52.446;13.280;2023-08-31T07:08:17;4.07;;;2.60;;
26261;SDS011;13988;52.446;13.280;2023-08-31T07:10:43;5.32;;;3.33;;
26261;SDS011;13988;52.446;13.280;2023-08-31T07:13:08;2.90;;;2.58;;
26261;SDS011;13988;52.446;13.280;2023-08-31T07:15:34;8.32;;;3.58;;
26261;SDS011;13988;52.446;13.280;2023-08-31T07:18:00;4.35;;;3.08;;
26261;SDS011;13988;52.446;13.280;2023-08-31T07:20:26;6.00;;;3.10;;
26261;SDS011;13988;52.446;13.280;2023-08-31T07:22:51;4.80;;;3.17;;
26261;SDS011;13988;52.446;13.280;2023-08-31T07:25:17;3.40;;;2.80;;
26261;SDS011;13988;52.446;13.280;2023-08-31T07:27:43;6.75;;;3.53;;
26261;SDS011;13988;52.446;13.280;2023-08-31T07:30:09;6.97;;;3.17;;
26261;SDS011;13988;52.446;13.280;2023-08-31T07:32:35;3.90;;;3.50;;
26261;SDS011;13988;52.446;13.280;2023-08-31T07:35:01;5.13;;;2.78;;
26261;SDS011;13988;52.446;13.280;2023-08-31T07:37:29;3.67;;;2.80;;
26261;SDS011;13988;52.446;13.280;2023-08-31T07:39:55;4.03;;;3.58;;
26261;SDS011;13988;52.446;13.280;2023-08-31T07:42:21;4.38;;;3.28;;
26261;SDS011;13988;52.446;13.280;2023-08-31T07:44:46;6.80;;;3.33;;
26261;SDS011;13988;52.446;13.280;2023-08-31T07:47:12;4.53;;;3.38;;
26261;SDS011;13988;52.446;13.280;2023-08-31T07:49:37;4.03;;;3.35;;
26261;SDS011;13988;52.446;13.280;2023-08-31T07:52:03;5.80;;;3.10;;
26261;SDS011;13988;52.446;13.280;2023-08-31T07:54:29;7.93;;;3.17;;
26261;SDS011;13988;52.446;13.280;2023-08-31T07:56:55;3.90;;;3.13;;
26261;SDS011;13988;52.446;13.280;2023-08-31T07:59:20;4.45;;;2.38;;
26261;SDS011;13988;52.446;13.280;2023-08-31T08:01:47;3.08;;;2.50;;
26261;SDS011;13988;52.446;13.280;2023-08-31T08:04:13;5.15;;;2.75;;
26261;SDS011;13988;52.446;13.280;2023-08-31T08:06:39;3.67;;;2.80;;
26261;SDS011;13988;52.446;13.280;2023-08-31T08:09:04;3.30;;;2.55;;
26261;SDS011;13988;52.446;13.280;2023-08-31T08:11:30;2.78;;;2.30;;
26261;SDS011;13988;52.446;13.280;2023-08-31T08:13:56;4.57;;;2.25;;
26261;SDS011;13988;52.446;13.280;2023-08-31T08:16:22;2.47;;;2.28;;
26261;SDS011;13988;52.446;13.280;2023-08-31T08:18:48;2.67;;;2.25;;
26261;SDS011;13988;52.446;13.280;2023-08-31T08:21:14;5.38;;;2.80;;
26261;SDS011;13988;52.446;13.280;2023-08-31T08:23:40;4.05;;;2.35;;
26261;SDS011;13988;52.446;13.280;2023-08-31T08:26:06;4.32;;;2.78;;
26261;SDS011;13988;52.446;13.280;2023-08-31T08:28:31;8.07;;;2.75;;
26261;SDS011;13988;52.446;13.280;2023-08-31T08:31:00;2.38;;;2.03;;
26261;SDS011;13988;52.446;13.280;2023-08-31T08:33:31;2.60;;;2.05;;
26261;SDS011;13988;52.446;13.280;2023-08-31T08:35:57;2.05;;;1.90;;
26261;SDS011;13988;52.446;13.280;2023-08-31T08:38:23;2.65;;;2.00;;
26261;SDS011;13988;52.446;13.280;2023-08-31T08:40:50;2.70;;;1.65;;
26261;SDS011;13988;52.446;13.280;2023-08-31T08:43:16;3.25;;;1.65;;
26261;SDS011;13988;52.446;13.280;2023-08-31T08:45:49;4.68;;;2.50;;
26261;SDS011;13988;52.446;13.280;2023-08-31T08:48:16;1.67;;;1.58;;
26261;SDS011;13988;52.446;13.280;2023-08-31T08:50:44;1.75;;;1.60;;
26261;SDS011;13988;52.446;13.280;2023-08-31T08:53:10;2.08;;;1.73;;
26261;SDS011;13988;52.446;13.280;2023-08-31T08:55:38;3.60;;;1.80;;
26261;SDS011;13988;52.446;13.280;2023-08-31T08:58:05;3.45;;;1.98;;
26261;SDS011;13988;52.446;13.280;2023-08-31T09:00:31;1.85;;;1.23;;
26261;SDS011;13988;52.446;13.280;2023-08-31T09:02:58;1.88;;;1.20;;
26261;SDS011;13988;52.446;13.280;2023-08-31T09:05:25;1.80;;;1.40;;
26261;SDS011;13988;52.446;13.280;2023-08-31T09:08:01;3.05;;;1.00;;
26261;SDS011;13988;52.446;13.280;2023-08-31T09:10:32;2.95;;;1.55;;
26261;SDS011;13988;52.446;13.280;2023-08-31T09:13:06;1.73;;;1.27;;
26261;SDS011;13988;52.446;13.280;2023-08-31T09:15:46;3.28;;;1.42;;
26261;SDS011;13988;52.446;13.280;2023-08-31T09:18:29;6.20;;;1.73;;
26261;SDS011;13988;52.446;13.280;2023-08-31T09:20:59;5.32;;;2.13;;
26261;SDS011;13988;52.446;13.280;2023-08-31T09:23:26;3.33;;;1.52;;
26261;SDS011;13988;52.446;13.280;2023-08-31T09:25:52;1.70;;;1.55;;
26261;SDS011;13988;52.446;13.280;2023-08-31T09:28:23;2.28;;;1.63;;
26261;SDS011;13988;52.446;13.280;2023-08-31T09:30:51;2.88;;;1.73;;
26261;SDS011;13988;52.446;13.280;2023-08-31T09:33:18;2.55;;;1.33;;
26261;SDS011;13988;52.446;13.280;2023-08-31T09:35:48;1.73;;;1.58;;
26261;SDS011;13988;52.446;13.280;2023-08-31T09:38:16;3.42;;;1.73;;
26261;SDS011;13988;52.446;13.280;2023-08-31T09:40:42;1.17;;;1.15;;
26261;SDS011;13988;52.446;13.280;2023-08-31T09:43:08;1.35;;;1.13;;
26261;SDS011;13988;52.446;13.280;2023-08-31T09:45:34;2.08;;;1.80;;
26261;SDS011;13988;52.446;13.280;2023-08-31T09:48:01;1.20;;;1.10;;
26261;SDS011;13988;52.446;13.280;2023-08-31T09:50:31;1.90;;;1.70;;
26261;SDS011;13988;52.446;13.280;2023-08-31T09:53:04;1.83;;;1.30;;
26261;SDS011;13988;52.446;13.280;2023-08-31T09:55:32;3.75;;;1.48;;
26261;SDS011;13988;52.446;13.280;2023-08-31T09:57:58;1.52;;;0.90;;
26261;SDS011;13988;52.446;13.280;2023-08-31T10:00:26;3.42;;;1.05;;
26261;SDS011;13988;52.446;13.280;2023-08-31T10:02:54;1.23;;;0.90;;
26261;SDS011;13988;52.446;13.280;2023-08-31T10:05:21;2.58;;;0.95;;
26261;SDS011;13988;52.446;13.280;2023-08-31T10:07:49;2.75;;;1.02;;
26261;SDS011;13988;52.446;13.280;2023-08-31T10:10:16;3.47;;;1.13;;
26261;SDS011;13988;52.446;13.280;2023-08-31T10:12:42;1.17;;;1.08;;
26261;SDS011;13988;52.446;13.280;2023-08-31T10:15:11;3.67;;;1.10;;
26261;SDS011;13988;52.446;13.280;2023-08-31T10:17:37;0.85;;;0.77;;
26261;SDS011;13988;52.446;13.280;2023-08-31T10:20:05;0.93;;;0.70;;
26261;SDS011;13988;52.446;13.280;2023-08-31T10:22:33;1.33;;;0.90;;
26261;SDS011;13988;52.446;13.280;2023-08-31T10:25:02;2.60;;;1.00;;
26261;SDS011;13988;52.446;13.280;2023-08-31T10:27:40;3.70;;;1.48;;
26261;SDS011;13988;52.446;13.280;2023-08-31T10:38:13;1.60;;;1.50;;
26261;SDS011;13988;52.446;13.280;2023-08-31T10:41:17;5.63;;;1.83;;
26261;SDS011;13988;52.446;13.280;2023-08-31T10:43:47;2.70;;;1.42;;
26261;SDS011;13988;52.446;13.280;2023-08-31T10:48:55;1.42;;;1.33;;
26261;SDS011;13988;52.446;13.280;2023-08-31T10:51:25;4.53;;;1.40;;
26261;SDS011;13988;52.446;13.280;2023-08-31T10:56:52;1.90;;;1.15;;
26261;SDS011;13988;52.446;13.280;2023-08-31T10:59:19;1.23;;;1.08;;
26261;SDS011;13988;52.446;13.280;2023-08-31T11:01:53;4.22;;;1.13;;
26261;SDS011;13988;52.446;13.280;2023-08-31T11:04:22;3.65;;;1.60;;
26261;SDS011;13988;52.446;13.280;2023-08-31T11:09:41;1.50;;;1.05;;
26261;SDS011;13988;52.446;13.280;2023-08-31T11:12:07;1.83;;;1.00;;
26261;SDS011;13988;52.446;13.280;2023-08-31T11:14:33;2.38;;;1.40;;
26261;SDS011;13988;52.446;13.280;2023-08-31T11:17:00;2.17;;;1.38;;
26261;SDS011;13988;52.446;13.280;2023-08-31T11:19:26;5.32;;;1.63;;
26261;SDS011;13988;52.446;13.280;2023-08-31T11:21:53;1.20;;;1.10;;
26261;SDS011;13988;52.446;13.280;2023-08-31T11:24:19;1.65;;;1.33;;
26261;SDS011;13988;52.446;13.280;2023-08-31T11:26:51;1.13;;;1.02;;
26261;SDS011;13988;52.446;13.280;2023-08-31T11:29:17;3.35;;;1.63;;
26261;SDS011;13988;52.446;13.280;2023-08-31T11:31:43;1.65;;;1.20;;
26261;SDS011;13988;52.446;13.280;2023-08-31T11:34:12;1.75;;;1.05;;
26261;SDS011;13988;52.446;13.280;2023-08-31T11:36:39;1.55;;;1.45;;
26261;SDS011;13988;52.446;13.280;2023-08-31T11:39:10;3.58;;;1.63;;
26261;SDS011;13988;52.446;13.280;2023-08-31T11:41:36;1.27;;;1.17;;
26261;SDS011;13988;52.446;13.280;2023-08-31T11:44:07;2.22;;;1.42;;
26261;SDS011;13988;52.446;13.280;2023-08-31T11:46:34;2.30;;;1.27;;
26261;SDS011;13988;52.446;13.280;2023-08-31T11:49:00;4.25;;;2.08;;
26261;SDS011;13988;52.446;13.280;2023-08-31T11:51:29;0.77;;;0.77;;
26261;SDS011;13988;52.446;13.280;2023-08-31T11:53:55;1.10;;;0.98;;
26261;SDS011;13988;52.446;13.280;2023-08-31T11:56:23;1.23;;;0.90;;
26261;SDS011;13988;52.446;13.280;2023-08-31T11:58:50;2.20;;;1.50;;
26261;SDS011;13988;52.446;13.280;2023-08-31T12:01:20;5.00;;;1.17;;
26261;SDS011;13988;52.446;13.280;2023-08-31T12:03:46;1.75;;;1.30;;
26261;SDS011;13988;52.446;13.280;2023-08-31T12:06:21;1.70;;;1.10;;
26261;SDS011;13988;52.446;13.280;2023-08-31T12:08:46;1.48;;;1.25;;
26261;SDS011;13988;52.446;13.280;2023-08-31T12:11:14;1.27;;;1.15;;
26261;SDS011;13988;52.446;13.280;2023-08-31T12:13:40;1.15;;;1.00;;
26261;SDS011;13988;52.446;13.280;2023-08-31T12:16:11;7.22;;;1.60;;
26261;SDS011;13988;52.446;13.280;2023-08-31T12:18:37;2.67;;;1.38;;
26261;SDS011;13988;52.446;13.280;2023-08-31T12:21:03;4.13;;;1.27;;
26261;SDS011;13988;52.446;13.280;2023-08-31T12:23:29;1.15;;;1.08;;
26261;SDS011;13988;52.446;13.280;2023-08-31T12:25:55;1.40;;;1.10;;
26261;SDS011;13988;52.446;13.280;2023-08-31T12:28:22;0.98;;;0.95;;
26261;SDS011;13988;52.446;13.280;2023-08-31T12:30:52;0.93;;;0.82;;
26261;SDS011;13988;52.446;13.280;2023-08-31T12:33:18;2.20;;;1.10;;
26261;SDS011;13988;52.446;13.280;2023-08-31T12:35:45;1.10;;;1.00;;
26261;SDS011;13988;52.446;13.280;2023-08-31T12:38:11;1.08;;;0.95;;
26261;SDS011;13988;52.446;13.280;2023-08-31T12:40:37;1.42;;;0.80;;
26261;SDS011;13988;52.446;13.280;2023-08-31T12:43:06;2.75;;;1.10;;
26261;SDS011;13988;52.446;13.280;2023-08-31T12:45:32;1.75;;;1.05;;
26261;SDS011;13988;52.446;13.280;2023-08-31T12:47:58;1.30;;;1.20;;
26261;SDS011;13988;52.446;13.280;2023-08-31T12:50:25;1.73;;;0.88;;
26261;SDS011;13988;52.446;13.280;2023-08-31T12:52:50;0.70;;;0.70;;
26261;SDS011;13988;52.446;13.280;2023-08-31T12:55:16;1.90;;;1.35;;
26261;SDS011;13988;52.446;13.280;2023-08-31T12:57:42;0.90;;;0.80;;
26261;SDS011;13988;52.446;13.280;2023-08-31T13:00:08;0.98;;;0.95;;
26261;SDS011;13988;52.446;13.280;2023-08-31T13:02:38;0.95;;;0.88;;
26261;SDS011;13988;52.446;13.280;2023-08-31T13:05:05;0.85;;;0.85;;
26261;SDS011;13988;52.446;13.280;2023-08-31T13:07:37;1.38;;;1.15;;
26261;SDS011;13988;52.446;13.280;2023-08-31T13:10:04;0.90;;;0.90;;
26261;SDS011;13988;52.446;13.280;2023-08-31T13:12:30;0.80;;;0.80;;
26261;SDS011;13988;52.446;13.280;2023-08-31T13:14:56;0.95;;;0.70;;
26261;SDS011;13988;52.446;13.280;2023-08-31T13:17:22;1.40;;;0.90;;
26261;SDS011;13988;52.446;13.280;2023-08-31T13:19:51;1.20;;;1.00;;
26261;SDS011;13988;52.446;13.280;2023-08-31T13:22:18;1.25;;;1.20;;
26261;SDS011;13988;52.446;13.280;2023-08-31T13:24:43;0.80;;;0.80;;
26261;SDS011;13988;52.446;13.280;2023-08-31T13:27:10;0.82;;;0.77;;
26261;SDS011;13988;52.446;13.280;2023-08-31T13:29:36;1.20;;;0.90;;
26261;SDS011;13988;52.446;13.280;2023-08-31T13:32:01;0.70;;;0.70;;
26261;SDS011;13988;52.446;13.280;2023-08-31T13:34:28;0.80;;;0.80;;
26261;SDS011;13988;52.446;13.280;2023-08-31T13:36:54;1.02;;;0.93;;
26261;SDS011;13988;52.446;13.280;2023-08-31T13:39:19;1.30;;;0.80;;
26261;SDS011;13988;52.446;13.280;2023-08-31T13:41:45;0.80;;;0.80;;
26261;SDS011;13988;52.446;13.280;2023-08-31T13:44:11;1.80;;;0.90;;
26261;SDS011;13988;52.446;13.280;2023-08-31T13:46:36;1.13;;;1.10;;
26261;SDS011;13988;52.446;13.280;2023-08-31T13:49:02;0.85;;;0.85;;
26261;SDS011;13988;52.446;13.280;2023-08-31T13:51:28;2.00;;;0.88;;
26261;SDS011;13988;52.446;13.280;2023-08-31T13:53:54;2.70;;;1.13;;
26261;SDS011;13988;52.446;13.280;2023-08-31T13:56:19;0.98;;;0.90;;
26261;SDS011;13988;52.446;13.280;2023-08-31T13:58:45;1.30;;;1.20;;
26261;SDS011;13988;52.446;13.280;2023-08-31T14:01:11;1.27;;;1.10;;
26261;SDS011;13988;52.446;13.280;2023-08-31T14:03:38;3.45;;;1.63;;
26261;SDS011;13988;52.446;13.280;2023-08-31T14:06:03;1.65;;;1.35;;
26261;SDS011;13988;52.446;13.280;2023-08-31T14:08:29;1.00;;;0.90;;
26261;SDS011;13988;52.446;13.280;2023-08-31T14:10:55;3.03;;;1.02;;
26261;SDS011;13988;52.446;13.280;2023-08-31T14:13:21;1.52;;;1.05;;
26261;SDS011;13988;52.446;13.280;2023-08-31T14:15:47;2.13;;;1.40;;
26261;SDS011;13988;52.446;13.280;2023-08-31T14:18:13;0.70;;;0.70;;
26261;SDS011;13988;52.446;13.280;2023-08-31T14:20:39;1.33;;;0.88;;
26261;SDS011;13988;52.446;13.280;2023-08-31T14:23:05;2.70;;;0.80;;
26261;SDS011;13988;52.446;13.280;2023-08-31T14:25:37;1.08;;;0.68;;
26261;SDS011;13988;52.446;13.280;2023-08-31T14:28:05;0.52;;;0.52;;
26261;SDS011;13988;52.446;13.280;2023-08-31T14:30:31;2.15;;;0.73;;
26261;SDS011;13988;52.446;13.280;2023-08-31T14:32:56;0.95;;;0.75;;
26261;SDS011;13988;52.446;13.280;2023-08-31T14:35:22;0.50;;;0.50;;
26261;SDS011;13988;52.446;13.280;2023-08-31T14:37:48;0.52;;;0.52;;
26261;SDS011;13988;52.446;13.280;2023-08-31T14:40:13;1.02;;;0.68;;
26261;SDS011;13988;52.446;13.280;2023-08-31T14:42:39;0.30;;;0.30;;
26261;SDS011;13988;52.446;13.280;2023-08-31T14:45:05;0.80;;;0.50;;
26261;SDS011;13988;52.446;13.280;2023-08-31T14:47:31;0.50;;;0.50;;
26261;SDS011;13988;52.446;13.280;2023-08-31T14:49:57;1.15;;;0.43;;
26261;SDS011;13988;52.446;13.280;2023-08-31T14:52:23;0.50;;;0.50;;
26261;SDS011;13988;52.446;13.280;2023-08-31T14:54:49;0.98;;;0.47;;